createdAt,value
2018-10-15T00:00:01.789Z,6.70
2018-10-15T00:01:01.773Z,6.70
2018-10-15T00:02:01.803Z,6.50
2018-10-15T00:03:01.833Z,6.50
2018-10-15T00:04:01.864Z,6.10
2018-10-15T00:05:01.895Z,7.00
2018-10-15T00:06:01.928Z,6.40
2018-10-15T00:07:01.956Z,6.50
2018-10-15T00:08:01.992Z,6.00
2018-10-15T00:09:02.016Z,6.90
2018-10-15T00:10:02.046Z,6.70
2018-10-15T00:11:02.081Z,6.10
2018-10-15T00:12:02.106Z,6.50
2018-10-15T00:13:02.136Z,5.40
2018-10-15T00:14:02.167Z,6.90
2018-10-15T00:15:02.197Z,6.70
2018-10-15T00:16:02.227Z,7.30
2018-10-15T00:17:02.258Z,6.30
2018-10-15T00:18:02.290Z,6.30
2018-10-15T00:19:02.322Z,7.10
2018-10-15T00:20:02.348Z,6.50
2018-10-15T00:21:02.380Z,6.60
2018-10-15T00:22:02.410Z,7.20
2018-10-15T00:23:02.441Z,6.90
2018-10-15T00:24:02.469Z,5.90
2018-10-15T00:25:02.501Z,6.90
2018-10-15T00:26:02.531Z,6.60
2018-10-15T00:27:02.569Z,6.10
2018-10-15T00:28:02.595Z,6.20
2018-10-15T00:29:02.623Z,6.10
2018-10-15T00:30:02.652Z,6.60
2018-10-15T00:31:02.684Z,6.70
2018-10-15T00:32:02.716Z,6.90
2018-10-15T00:33:02.744Z,6.50
2018-10-15T00:34:02.775Z,6.60
2018-10-15T00:35:02.804Z,6.00
2018-10-15T00:36:02.834Z,7.00
2018-10-15T00:37:02.864Z,6.80
2018-10-15T00:38:02.895Z,6.90
2018-10-15T00:39:02.932Z,7.40
2018-10-15T00:40:02.956Z,6.40
2018-10-15T00:41:02.985Z,6.00
2018-10-15T00:42:03.018Z,7.00
2018-10-15T00:43:03.045Z,6.50
2018-10-15T00:44:03.077Z,6.90
2018-10-15T00:45:03.106Z,5.90
2018-10-15T00:46:03.138Z,6.50
2018-10-15T00:47:03.167Z,6.50
2018-10-15T00:48:03.198Z,7.00
2018-10-15T00:49:03.227Z,6.60
2018-10-15T00:50:03.259Z,6.50
2018-10-15T00:51:03.287Z,7.60
2018-10-15T00:52:03.317Z,6.70
2018-10-15T00:53:03.348Z,7.20
2018-10-15T00:54:03.378Z,7.10
2018-10-15T00:55:03.409Z,7.70
2018-10-15T00:56:03.439Z,6.40
2018-10-15T00:57:03.468Z,7.20
2018-10-15T00:58:03.499Z,6.60
2018-10-15T00:59:03.528Z,6.80
2018-10-15T01:00:03.618Z,7.10
2018-10-15T01:01:03.590Z,6.60
2018-10-15T01:02:03.621Z,7.00
2018-10-15T01:03:03.650Z,7.00
2018-10-15T01:04:03.680Z,7.00
2018-10-15T01:05:03.713Z,6.80
2018-10-15T01:06:03.740Z,7.20
2018-10-15T01:07:03.771Z,6.30
2018-10-15T01:08:03.800Z,7.80
2018-10-15T01:09:03.831Z,6.90
2018-10-15T01:10:03.862Z,7.30
2018-10-15T01:11:03.891Z,7.10
2018-10-15T01:12:03.920Z,6.70
2018-10-15T01:13:03.950Z,7.00
2018-10-15T01:14:03.984Z,7.30
2018-10-15T01:15:04.010Z,7.30
2018-10-15T01:16:04.040Z,7.00
2018-10-15T01:17:04.071Z,7.10
2018-10-15T01:18:04.102Z,7.00
2018-10-15T01:19:04.148Z,6.90
2018-10-15T01:20:04.211Z,7.40
2018-10-15T01:21:04.190Z,6.60
2018-10-15T01:22:04.221Z,7.10
2018-10-15T01:23:04.252Z,7.50
2018-10-15T01:24:04.283Z,7.10
2018-10-15T01:25:04.311Z,6.70
2018-10-15T01:26:04.343Z,7.10
2018-10-15T01:27:04.371Z,7.50
2018-10-15T01:28:04.401Z,6.90
2018-10-15T01:29:04.432Z,6.50
2018-10-15T01:30:04.462Z,6.40
2018-10-15T01:31:04.492Z,6.70
2018-10-15T01:32:04.520Z,6.70
2018-10-15T01:33:04.550Z,7.00
2018-10-15T01:34:04.582Z,6.60
2018-10-15T01:35:04.611Z,7.90
2018-10-15T01:36:04.642Z,7.00
2018-10-15T01:37:04.671Z,6.60
2018-10-15T01:38:04.702Z,6.80
2018-10-15T01:39:04.730Z,6.50
2018-10-15T01:40:04.760Z,6.80
2018-10-15T01:41:04.790Z,7.30
2018-10-15T01:42:04.820Z,7.10
2018-10-15T01:43:04.852Z,7.20
2018-10-15T01:44:04.880Z,6.40
2018-10-15T01:45:04.909Z,6.70
2018-10-15T01:46:04.940Z,6.90
2018-10-15T01:47:04.969Z,6.00
2018-10-15T01:48:04.999Z,7.20
2018-10-15T01:49:05.030Z,7.20
2018-10-15T01:50:05.059Z,7.60
2018-10-15T01:51:05.088Z,7.10
2018-10-15T01:52:05.118Z,7.30
2018-10-15T01:53:05.149Z,7.30
2018-10-15T01:54:05.179Z,6.50
2018-10-15T01:55:05.208Z,6.80
2018-10-15T01:56:05.238Z,6.80
2018-10-15T01:57:05.268Z,7.00
2018-10-15T01:58:05.299Z,7.20
2018-10-15T01:59:05.328Z,7.10
2018-10-15T02:00:05.357Z,7.30
2018-10-15T02:01:05.390Z,7.10
2018-10-15T02:02:05.417Z,7.20
2018-10-15T02:03:05.445Z,7.70
2018-10-15T02:04:05.479Z,7.00
2018-10-15T02:05:05.506Z,7.00
2018-10-15T02:06:05.536Z,7.10
2018-10-15T02:07:05.566Z,7.20
2018-10-15T02:08:05.597Z,7.60
2018-10-15T02:09:05.624Z,6.90
2018-10-15T02:10:05.655Z,6.50
2018-10-15T02:11:05.684Z,7.00
2018-10-15T02:12:05.714Z,7.00
2018-10-15T02:13:05.744Z,7.80
2018-10-15T02:14:05.774Z,6.90
2018-10-15T02:15:05.803Z,7.60
2018-10-15T02:16:05.832Z,6.70
2018-10-15T02:17:05.864Z,8.10
2018-10-15T02:18:05.893Z,8.10
2018-10-15T02:19:05.921Z,7.40
2018-10-15T02:20:05.952Z,7.10
2018-10-15T02:21:05.982Z,7.00
2018-10-15T02:22:08.467Z,7.60
2018-10-15T02:23:06.042Z,7.80
2018-10-15T02:24:06.070Z,7.60
2018-10-15T02:25:06.101Z,7.30
2018-10-15T02:26:06.129Z,6.60
2018-10-15T02:27:06.161Z,7.00
2018-10-15T02:28:06.189Z,7.30
2018-10-15T02:29:06.218Z,7.40
2018-10-15T02:30:06.249Z,7.50
2018-10-15T02:31:06.277Z,7.90
2018-10-15T02:32:06.308Z,7.50
2018-10-15T02:33:06.337Z,7.80
2018-10-15T02:34:06.367Z,7.60
2018-10-15T02:35:06.397Z,7.40
2018-10-15T02:36:06.432Z,7.70
2018-10-15T02:37:06.456Z,7.00
2018-10-15T02:38:06.491Z,6.70
2018-10-15T02:39:06.516Z,7.40
2018-10-15T02:40:06.552Z,7.30
2018-10-15T02:41:06.574Z,7.60
2018-10-15T02:42:06.605Z,8.00
2018-10-15T02:43:06.632Z,7.40
2018-10-15T02:44:06.663Z,8.20
2018-10-15T02:45:06.692Z,8.20
2018-10-15T02:46:06.723Z,8.10
2018-10-15T02:47:06.751Z,7.40
2018-10-15T02:48:06.781Z,7.90
2018-10-15T02:49:06.811Z,7.70
2018-10-15T02:50:06.843Z,7.90
2018-10-15T02:51:06.870Z,8.10
2018-10-15T02:52:06.899Z,7.00
2018-10-15T02:53:06.929Z,7.60
2018-10-15T02:54:06.960Z,7.50
2018-10-15T02:55:06.987Z,7.40
2018-10-15T02:56:07.018Z,6.90
2018-10-15T02:57:07.046Z,7.60
2018-10-15T02:58:07.076Z,7.90
2018-10-15T02:59:07.112Z,7.00
2018-10-15T03:00:07.139Z,7.90
2018-10-15T03:01:07.165Z,7.70
2018-10-15T03:02:07.194Z,7.90
2018-10-15T03:03:07.224Z,7.90
2018-10-15T03:04:07.254Z,7.60
2018-10-15T03:05:07.285Z,8.50
2018-10-15T03:06:07.314Z,7.40
2018-10-15T03:07:07.341Z,7.80
2018-10-15T03:08:07.372Z,8.00
2018-10-15T03:09:07.401Z,7.10
2018-10-15T03:10:07.431Z,7.50
2018-10-15T03:11:07.459Z,8.20
2018-10-15T03:12:07.492Z,7.20
2018-10-15T03:13:07.518Z,8.10
2018-10-15T03:14:07.550Z,7.80
2018-10-15T03:15:07.577Z,8.00
2018-10-15T03:16:07.606Z,7.40
2018-10-15T03:17:07.636Z,8.50
2018-10-15T03:18:07.666Z,8.10
2018-10-15T03:19:07.696Z,7.30
2018-10-15T03:20:07.781Z,8.20
2018-10-15T03:21:07.753Z,7.70
2018-10-15T03:22:07.782Z,7.60
2018-10-15T03:23:07.812Z,8.10
2018-10-15T03:24:07.841Z,8.20
2018-10-15T03:25:07.874Z,8.70
2018-10-15T03:26:07.902Z,7.80
2018-10-15T03:27:07.928Z,8.20
2018-10-15T03:28:07.960Z,8.80
2018-10-15T03:29:07.993Z,8.60
2018-10-15T03:30:08.018Z,8.80
2018-10-15T03:31:08.048Z,8.30
2018-10-15T03:32:08.075Z,8.10
2018-10-15T03:33:08.105Z,8.20
2018-10-15T03:34:08.137Z,8.70
2018-10-15T03:35:08.163Z,7.90
2018-10-15T03:36:08.194Z,8.40
2018-10-15T03:37:08.221Z,7.80
2018-10-15T03:38:08.252Z,8.60
2018-10-15T03:39:08.281Z,8.30
2018-10-15T03:40:08.312Z,8.10
2018-10-15T03:41:08.340Z,8.70
2018-10-15T03:42:08.374Z,8.50
2018-10-15T03:43:08.402Z,8.50
2018-10-15T03:44:08.431Z,8.30
2018-10-15T03:45:08.459Z,7.80
2018-10-15T03:46:08.487Z,7.70
2018-10-15T03:47:08.515Z,7.40
2018-10-15T03:48:08.544Z,7.80
2018-10-15T03:49:08.574Z,8.70
2018-10-15T03:50:08.605Z,8.50
2018-10-15T03:51:08.632Z,8.50
2018-10-15T03:52:08.664Z,9.00
2018-10-15T03:53:08.691Z,8.90
2018-10-15T03:54:08.726Z,8.50
2018-10-15T03:55:08.749Z,8.30
2018-10-15T03:56:08.779Z,8.30
2018-10-15T03:57:08.810Z,8.90
2018-10-15T03:58:08.839Z,8.60
2018-10-15T03:59:08.869Z,8.30
2018-10-15T04:00:08.896Z,8.50
2018-10-15T04:01:08.927Z,8.40
2018-10-15T04:02:08.984Z,8.20
2018-10-15T04:03:08.985Z,8.20
2018-10-15T04:04:09.015Z,8.60
2018-10-15T04:05:09.044Z,9.00
2018-10-15T04:06:09.073Z,9.10
2018-10-15T04:07:09.112Z,8.70
2018-10-15T04:08:09.131Z,8.20
2018-10-15T04:09:09.161Z,8.20
2018-10-15T04:10:09.191Z,8.80
2018-10-15T04:11:09.218Z,8.60
2018-10-15T04:12:09.250Z,8.90
2018-10-15T04:13:09.279Z,8.20
2018-10-15T04:14:09.307Z,8.30
2018-10-15T04:15:09.335Z,8.90
2018-10-15T04:16:09.366Z,7.90
2018-10-15T04:17:09.395Z,7.60
2018-10-15T04:18:09.424Z,8.30
2018-10-15T04:19:09.453Z,8.80
2018-10-15T04:20:09.483Z,8.10
2018-10-15T04:21:09.513Z,8.70
2018-10-15T04:22:09.542Z,8.30
2018-10-15T04:23:09.571Z,7.90
2018-10-15T04:24:09.600Z,7.70
2018-10-15T04:25:09.630Z,8.70
2018-10-15T04:26:09.660Z,7.60
2018-10-15T04:27:09.688Z,8.30
2018-10-15T04:28:09.717Z,8.40
2018-10-15T04:29:09.747Z,7.90
2018-10-15T04:30:09.781Z,8.20
2018-10-15T04:31:09.805Z,8.40
2018-10-15T04:32:09.835Z,8.50
2018-10-15T04:33:09.865Z,8.90
2018-10-15T04:34:09.893Z,7.90
2018-10-15T04:35:09.925Z,8.70
2018-10-15T04:36:09.952Z,8.20
2018-10-15T04:37:09.981Z,8.00
2018-10-15T04:38:10.018Z,7.90
2018-10-15T04:39:10.041Z,8.40
2018-10-15T04:40:10.068Z,8.30
2018-10-15T04:41:10.098Z,9.60
2018-10-15T04:42:10.129Z,9.40
2018-10-15T04:43:10.158Z,9.50
2018-10-15T04:44:10.392Z,8.10
2018-10-15T04:47:10.273Z,9.00
2018-10-15T04:48:10.304Z,8.60
2018-10-15T04:49:10.466Z,8.10
2018-10-15T04:50:10.450Z,9.00
2018-10-15T04:51:10.391Z,8.90
2018-10-15T04:52:10.422Z,8.80
2018-10-15T04:53:10.451Z,7.90
2018-10-15T04:54:10.479Z,8.70
2018-10-15T04:55:10.613Z,8.90
2018-10-15T04:56:10.537Z,9.60
2018-10-15T04:57:10.567Z,9.60
2018-10-15T04:58:10.597Z,9.00
2018-10-15T04:59:10.626Z,9.70
2018-10-15T05:00:10.695Z,9.50
2018-10-15T05:01:10.686Z,9.50
2018-10-15T05:02:10.714Z,9.20
2018-10-15T05:03:10.743Z,9.00
2018-10-15T05:04:10.772Z,9.00
2018-10-15T05:05:10.801Z,9.70
2018-10-15T05:06:10.875Z,9.00
2018-10-15T05:07:10.860Z,8.90
2018-10-15T05:08:10.889Z,9.30
2018-10-15T05:09:10.919Z,9.00
2018-10-15T05:10:10.948Z,9.10
2018-10-15T05:11:10.977Z,9.70
2018-10-15T05:12:11.045Z,9.10
2018-10-15T05:13:11.035Z,9.00
2018-10-15T05:14:11.066Z,9.00
2018-10-15T05:15:11.094Z,9.40
2018-10-15T05:16:11.124Z,9.20
2018-10-15T05:17:53.699Z,9.20
2018-10-15T05:19:36.272Z,8.70
2018-10-15T05:20:36.304Z,8.40
2018-10-15T05:23:36.388Z,8.40
2018-10-15T05:24:36.418Z,9.20
2018-10-15T05:29:36.767Z,9.50
2018-10-15T05:30:36.853Z,9.30
2018-10-15T05:32:36.653Z,10.10
2018-10-15T05:33:36.684Z,9.40
2018-10-15T05:34:36.711Z,9.60
2018-10-15T05:35:36.743Z,9.70
2018-10-15T05:37:37.002Z,9.10
2018-10-15T05:38:36.833Z,9.50
2018-10-15T05:41:36.918Z,11.40
2018-10-15T05:42:36.946Z,10.50
2018-10-15T05:43:36.977Z,11.10
2018-10-15T05:44:37.005Z,9.50
2018-10-15T05:45:37.036Z,10.30
2018-10-15T05:46:37.135Z,10.10
2018-10-15T05:47:37.094Z,10.40
2018-10-15T05:48:37.124Z,9.80
2018-10-15T05:49:37.154Z,9.60
2018-10-15T05:50:37.183Z,9.90
2018-10-15T05:51:37.210Z,10.20
2018-10-15T05:52:37.241Z,10.10
2018-10-15T05:53:37.273Z,9.90
2018-10-15T05:54:37.500Z,9.60
2018-10-15T05:56:37.361Z,10.80
2018-10-15T05:57:37.388Z,9.90
2018-10-15T05:58:37.416Z,9.60
2018-10-15T05:59:37.648Z,9.10
2018-10-15T06:00:37.474Z,9.40
2018-10-15T06:03:37.767Z,9.80
2018-10-15T06:04:37.795Z,9.60
2018-10-15T06:08:37.711Z,9.80
2018-10-15T06:09:37.740Z,9.70
2018-10-15T06:10:37.770Z,9.70
2018-10-15T06:12:37.856Z,9.00
2018-10-15T06:13:37.972Z,9.40
2018-10-15T06:14:37.888Z,8.80
2018-10-15T06:15:37.918Z,9.20
2018-10-15T06:16:37.953Z,9.90
2018-10-15T06:17:37.979Z,9.80
2018-10-15T06:18:38.007Z,9.60
2018-10-15T06:19:38.040Z,8.60
2018-10-15T06:20:38.067Z,8.50
2018-10-15T06:21:38.097Z,8.80
2018-10-15T06:22:38.145Z,9.00
2018-10-15T06:23:38.158Z,9.20
2018-10-15T06:24:38.187Z,9.70
2018-10-15T06:25:38.217Z,9.40
2018-10-15T06:26:38.247Z,9.70
2018-10-15T06:27:38.276Z,9.00
2018-10-15T06:28:38.311Z,9.00
2018-10-15T06:29:38.338Z,9.00
2018-10-15T06:30:38.365Z,9.00
2018-10-15T06:31:38.396Z,9.40
2018-10-15T06:32:38.426Z,9.00
2018-10-15T06:33:38.516Z,9.20
2018-10-15T06:34:38.484Z,8.60
2018-10-15T06:35:38.515Z,9.40
2018-10-15T06:36:38.546Z,9.20
2018-10-15T06:37:38.576Z,8.60
2018-10-15T06:38:38.606Z,9.50
2018-10-15T06:39:38.635Z,9.60
2018-10-15T06:40:38.666Z,9.40
2018-10-15T06:41:38.702Z,9.60
2018-10-15T06:42:38.724Z,8.30
2018-10-15T06:43:38.836Z,9.20
2018-10-15T06:44:38.786Z,9.00
2018-10-15T06:45:38.815Z,8.90
2018-10-15T06:46:38.845Z,8.60
2018-10-15T06:47:38.875Z,8.60
2018-10-15T06:48:38.905Z,9.50
2018-10-15T06:49:38.981Z,10.10
2018-10-15T06:50:38.965Z,9.30
2018-10-15T06:51:38.995Z,9.40
2018-10-15T06:52:39.027Z,9.20
2018-10-15T06:53:39.100Z,9.80
2018-10-15T06:54:39.086Z,9.40
2018-10-15T06:55:39.116Z,9.60
2018-10-15T06:56:39.149Z,8.90
2018-10-15T06:57:39.179Z,8.50
2018-10-15T06:58:39.207Z,9.00
2018-10-15T06:59:39.238Z,9.30
2018-10-15T07:00:39.268Z,9.50
2018-10-15T07:01:39.301Z,8.70
2018-10-15T07:02:39.329Z,8.80
2018-10-15T07:03:39.361Z,8.90
2018-10-15T07:04:39.390Z,8.50
2018-10-15T07:05:39.421Z,8.60
2018-10-15T07:06:39.451Z,8.30
2018-10-15T07:07:39.556Z,8.70
2018-10-15T07:08:39.513Z,8.50
2018-10-15T07:09:39.545Z,9.10
2018-10-15T07:10:39.574Z,8.10
2018-10-15T07:11:39.610Z,7.40
2018-10-15T07:12:39.637Z,8.20
2018-10-15T07:13:39.749Z,8.20
2018-10-15T07:14:39.779Z,8.00
2018-10-15T07:15:39.728Z,8.40
2018-10-15T07:16:39.761Z,7.90
2018-10-15T07:17:39.794Z,7.60
2018-10-15T07:18:39.821Z,8.20
2018-10-15T07:19:39.853Z,7.70
2018-10-15T07:20:39.899Z,8.40
2018-10-15T07:21:39.916Z,7.80
2018-10-15T07:22:39.946Z,7.80
2018-10-15T07:23:39.978Z,8.40
2018-10-15T07:24:40.010Z,8.00
2018-10-15T07:25:40.041Z,7.80
2018-10-15T07:26:40.072Z,8.20
2018-10-15T07:27:40.104Z,7.80
2018-10-15T07:28:40.139Z,8.60
2018-10-15T07:29:40.169Z,8.40
2018-10-15T07:30:40.199Z,8.20
2018-10-15T07:31:40.230Z,8.10
2018-10-15T07:32:40.264Z,8.40
2018-10-15T07:33:40.382Z,8.00
2018-10-15T07:34:40.326Z,9.20
2018-10-15T07:35:40.360Z,8.10
2018-10-15T07:36:40.392Z,7.90
2018-10-15T07:37:40.424Z,8.30
2018-10-15T07:38:40.455Z,8.50
2018-10-15T07:39:40.515Z,9.40
2018-10-15T07:40:40.520Z,8.40
2018-10-15T07:41:40.554Z,8.00
2018-10-15T07:42:40.585Z,9.40
2018-10-15T07:43:40.618Z,8.60
2018-10-15T07:44:40.653Z,8.40
2018-10-15T07:45:40.683Z,8.00
2018-10-15T07:46:40.769Z,7.90
2018-10-15T07:47:40.748Z,8.10
2018-10-15T07:48:40.783Z,7.30
2018-10-15T07:49:40.814Z,7.30
2018-10-15T07:50:40.855Z,7.60
2018-10-15T07:51:40.880Z,7.30
2018-10-15T07:52:40.914Z,8.20
2018-10-15T07:53:40.948Z,8.70
2018-10-15T07:54:40.981Z,8.40
2018-10-15T07:55:41.015Z,8.40
2018-10-15T07:56:41.050Z,7.90
2018-10-15T07:57:41.083Z,7.60
2018-10-15T07:58:41.116Z,8.10
2018-10-15T07:59:41.150Z,7.50
2018-10-15T08:00:41.187Z,7.40
2018-10-15T08:01:41.221Z,7.90
2018-10-15T08:02:41.255Z,7.80
2018-10-15T08:03:41.289Z,7.90
2018-10-15T08:04:41.326Z,7.80
2018-10-15T08:05:41.491Z,7.80
2018-10-15T08:06:41.395Z,7.30
2018-10-15T08:07:41.431Z,7.30
2018-10-15T08:08:41.623Z,7.50
2018-10-15T08:09:41.502Z,7.10
2018-10-15T08:10:41.539Z,7.20
2018-10-15T08:11:41.573Z,6.40
2018-10-15T08:12:41.610Z,7.30
2018-10-15T08:13:41.647Z,7.00
2018-10-15T08:14:41.747Z,7.60
2018-10-15T08:15:41.943Z,7.80
2018-10-15T08:16:41.757Z,7.80
2018-10-15T08:17:41.792Z,7.20
2018-10-15T08:18:41.829Z,7.20
2018-10-15T08:19:41.897Z,7.60
2018-10-15T08:20:41.934Z,7.70
2018-10-15T08:21:41.943Z,7.20
2018-10-15T08:22:41.978Z,6.20
2018-10-15T08:23:42.038Z,5.80
2018-10-15T08:24:42.055Z,6.40
2018-10-15T08:25:42.097Z,6.60
2018-10-15T08:26:42.138Z,7.30
2018-10-15T08:27:42.170Z,7.20
2018-10-15T08:28:42.209Z,7.40
2018-10-15T08:30:42.284Z,7.40
2018-10-15T08:31:42.323Z,6.60
2018-10-15T08:32:42.364Z,7.10
2018-10-15T08:33:42.400Z,7.00
2018-10-15T08:34:42.465Z,7.30
2018-10-15T08:35:42.502Z,7.30
2018-10-15T08:36:42.518Z,7.10
2018-10-15T08:37:42.558Z,6.90
2018-10-15T08:38:42.596Z,5.90
2018-10-15T08:39:42.637Z,6.90
2018-10-15T08:40:42.676Z,7.10
2018-10-15T08:41:42.741Z,6.80
2018-10-15T08:42:42.755Z,6.90
2018-10-15T08:43:42.796Z,7.30
2018-10-15T08:44:42.835Z,7.00
2018-10-15T08:45:42.884Z,6.30
2018-10-15T08:46:42.921Z,6.50
2018-10-15T08:47:42.955Z,7.10
2018-10-15T08:48:43.019Z,6.80
2018-10-15T08:49:43.079Z,6.80
2018-10-15T08:50:43.103Z,7.20
2018-10-15T08:51:43.118Z,7.10
2018-10-15T08:52:43.215Z,6.60
2018-10-15T08:53:46.029Z,7.60
2018-10-15T08:54:43.240Z,6.10
2018-10-15T08:55:43.297Z,6.90
2018-10-15T08:56:43.332Z,6.60
2018-10-15T08:57:43.366Z,6.10
2018-10-15T08:58:43.406Z,6.40
2018-10-15T08:59:43.453Z,6.40
2018-10-15T09:00:43.490Z,6.40
2018-10-15T09:01:43.580Z,6.50
2018-10-15T09:02:43.634Z,5.70
2018-10-15T09:03:43.635Z,5.90
2018-10-15T09:04:43.672Z,5.80
2018-10-15T09:05:43.701Z,6.20
2018-10-15T09:06:43.801Z,5.90
2018-10-15T09:07:43.983Z,5.40
2018-10-15T09:08:44.085Z,5.70
2018-10-15T09:09:43.973Z,5.50
2018-10-15T09:10:43.971Z,6.30
2018-10-15T09:11:43.958Z,5.70
2018-10-15T09:12:44.042Z,5.50
2018-10-15T09:13:44.046Z,5.40
2018-10-15T09:14:44.169Z,5.10
2018-10-15T09:15:44.154Z,5.60
2018-10-15T09:16:44.174Z,5.30
2018-10-15T09:17:44.232Z,6.40
2018-10-15T09:18:44.279Z,5.30
2018-10-15T09:19:44.360Z,5.80
2018-10-15T09:20:44.382Z,5.60
2018-10-15T09:21:44.426Z,5.10
2018-10-15T09:22:44.440Z,5.30
2018-10-15T09:23:44.511Z,5.70
2018-10-15T09:24:44.544Z,5.30
2018-10-15T09:25:44.613Z,5.60
2018-10-15T09:26:44.715Z,5.00
2018-10-15T09:27:44.718Z,4.70
2018-10-15T09:28:44.710Z,5.90
2018-10-15T09:29:44.757Z,5.50
2018-10-15T09:30:45.622Z,5.40
2018-10-15T09:31:44.866Z,5.10
2018-10-15T09:32:44.905Z,6.00
2018-10-15T09:33:47.556Z,5.60
2018-10-15T09:34:45.043Z,5.40
2018-10-15T09:35:46.441Z,5.20
2018-10-15T09:37:45.175Z,5.10
2018-10-15T09:38:45.312Z,4.50
2018-10-15T09:39:45.211Z,4.60
2018-10-15T09:41:45.306Z,5.00
2018-10-15T09:42:45.393Z,4.60
2018-10-15T09:43:45.421Z,4.50
2018-10-15T09:44:45.462Z,4.80
2018-10-15T09:45:45.501Z,4.80
2018-10-15T09:46:45.548Z,4.40
2018-10-15T09:47:45.583Z,4.50
2018-10-15T09:48:45.651Z,4.70
2018-10-15T09:49:45.736Z,4.30
2018-10-15T09:50:45.799Z,4.60
2018-10-15T09:51:45.772Z,4.50
2018-10-15T09:52:45.885Z,4.30
2018-10-15T09:53:45.869Z,4.50
2018-10-15T09:54:45.977Z,4.70
2018-10-15T09:55:45.963Z,4.30
2018-10-15T09:56:46.033Z,4.40
2018-10-15T09:57:46.069Z,4.30
2018-10-15T09:58:46.166Z,4.50
2018-10-15T09:59:46.152Z,4.00
2018-10-15T10:00:46.240Z,4.40
2018-10-15T10:01:46.252Z,4.40
2018-10-15T10:02:46.353Z,4.60
2018-10-15T10:03:46.341Z,4.90
2018-10-15T10:04:46.399Z,5.10
2018-10-15T10:05:46.435Z,5.00
2018-10-15T10:06:46.539Z,5.10
2018-10-15T10:07:46.550Z,5.40
2018-10-15T10:08:46.601Z,5.20
2018-10-15T10:09:46.622Z,4.80
2018-10-15T10:10:46.713Z,5.40
2018-10-15T10:11:46.714Z,4.80
2018-10-15T10:12:46.775Z,4.90
2018-10-15T10:13:46.806Z,5.20
2018-10-15T10:14:46.863Z,5.50
2018-10-15T10:15:46.900Z,5.40
2018-10-15T10:16:47.007Z,4.70
2018-10-15T10:17:47.136Z,5.10
2018-10-15T10:18:47.043Z,5.10
2018-10-15T10:19:47.086Z,5.10
2018-10-15T10:20:47.147Z,5.00
2018-10-15T10:21:47.225Z,5.50
2018-10-15T10:22:47.280Z,4.90
2018-10-15T10:23:47.312Z,4.90
2018-10-15T10:24:47.388Z,4.70
2018-10-15T10:25:47.382Z,4.30
2018-10-15T10:26:47.423Z,4.70
2018-10-15T10:27:47.461Z,4.90
2018-10-15T10:28:47.731Z,4.40
2018-10-15T10:29:47.557Z,4.90
2018-10-15T10:30:47.606Z,4.70
2018-10-15T10:31:47.641Z,5.10
2018-10-15T10:32:47.692Z,5.30
2018-10-15T10:33:47.736Z,4.80
2018-10-15T10:34:47.828Z,4.90
2018-10-15T10:35:47.838Z,4.80
2018-10-15T10:36:47.894Z,5.20
2018-10-15T10:37:47.926Z,4.40
2018-10-15T10:38:47.978Z,4.50
2018-10-15T10:39:48.031Z,5.70
2018-10-15T10:40:48.114Z,5.20
2018-10-15T10:41:48.157Z,4.80
2018-10-15T10:42:48.163Z,5.00
2018-10-15T10:43:48.540Z,4.50
2018-10-15T10:44:48.303Z,4.30
2018-10-15T10:45:48.365Z,5.00
2018-10-15T10:46:48.358Z,4.80
2018-10-15T10:47:48.428Z,4.90
2018-10-15T10:48:48.480Z,4.50
2018-10-15T10:50:31.085Z,4.90
2018-10-15T10:52:31.159Z,4.30
2018-10-15T10:53:31.207Z,4.60
2018-10-15T10:54:31.257Z,4.80
2018-10-15T10:55:31.305Z,4.30
2018-10-15T10:56:31.354Z,4.40
2018-10-15T10:57:31.402Z,4.40
2018-10-15T10:58:31.509Z,4.70
2018-10-15T10:59:31.550Z,4.30
2018-10-15T11:00:31.549Z,4.60
2018-10-15T11:01:31.618Z,4.10
2018-10-15T11:02:31.717Z,4.80
2018-10-15T11:04:31.767Z,4.90
2018-10-15T11:05:32.082Z,4.10
2018-10-15T11:06:31.844Z,4.20
2018-10-15T11:07:31.894Z,3.90
2018-10-15T11:08:31.968Z,3.80
2018-10-15T11:09:32.018Z,4.00
2018-10-15T11:10:35.475Z,4.40
2018-10-15T11:11:32.095Z,4.50
2018-10-15T11:12:32.148Z,3.90
2018-10-15T11:13:32.195Z,4.70
2018-10-15T11:14:32.247Z,4.80
2018-10-15T11:15:32.298Z,4.70
2018-10-15T11:16:32.347Z,4.40
2018-10-15T11:17:32.397Z,4.30
2018-10-15T11:18:32.513Z,4.10
2018-10-15T11:19:32.502Z,4.00
2018-10-15T11:20:32.570Z,4.00
2018-10-15T11:21:32.821Z,4.40
2018-10-15T11:22:32.748Z,4.20
2018-10-15T11:23:32.701Z,3.70
2018-10-15T11:24:32.753Z,3.80
2018-10-15T11:25:32.802Z,3.90
2018-10-15T11:26:32.853Z,4.40
2018-10-15T11:27:32.906Z,4.10
2018-10-15T11:28:32.956Z,4.40
2018-10-15T11:29:33.092Z,4.20
2018-10-15T11:30:33.287Z,5.00
2018-10-15T11:31:33.136Z,4.40
2018-10-15T11:32:33.162Z,4.70
2018-10-15T11:33:33.236Z,4.40
2018-10-15T11:34:33.325Z,4.70
2018-10-15T11:35:33.316Z,4.30
2018-10-15T11:36:33.366Z,4.60
2018-10-15T11:37:33.441Z,4.50
2018-10-15T11:44:33.796Z,4.70
2018-10-15T11:46:34.096Z,5.20
2018-10-15T11:47:33.921Z,4.50
2018-10-15T11:48:33.973Z,5.30
2018-10-15T11:49:34.020Z,4.40
2018-10-15T11:53:56.906Z,5.30
2018-10-15T11:54:56.893Z,4.70
2018-10-15T11:55:56.941Z,5.40
2018-10-15T11:56:57.017Z,5.40
2018-10-15T11:57:57.062Z,5.20
2018-10-15T11:58:57.114Z,5.40
2018-10-15T11:59:57.170Z,5.10
2018-10-15T12:00:57.190Z,5.60
2018-10-15T12:01:57.265Z,4.80
2018-10-15T12:02:57.291Z,4.50
2018-10-15T12:03:57.564Z,5.00
2018-10-15T12:04:57.413Z,4.70
2018-10-15T12:05:57.476Z,5.10
2018-10-15T12:06:57.519Z,4.40
2018-10-15T12:07:57.563Z,5.60
2018-10-15T12:08:58.528Z,4.40
2018-10-15T12:09:57.970Z,4.80
2018-10-15T12:10:57.964Z,4.90
2018-10-15T12:15:57.966Z,4.70
2018-10-15T12:17:58.043Z,4.70
2018-10-15T12:18:58.117Z,4.80
2018-10-15T12:19:58.144Z,4.70
2018-10-15T12:20:58.216Z,4.50
2018-10-15T12:21:58.271Z,4.70
2018-10-15T12:22:58.624Z,4.90
2018-10-15T12:23:58.368Z,4.50
2018-10-15T12:24:58.625Z,5.20
2018-10-15T12:25:58.471Z,4.60
2018-10-15T12:27:58.814Z,4.30
2018-10-15T12:28:58.623Z,4.90
2018-10-15T12:30:58.706Z,4.90
2018-10-15T12:31:58.771Z,4.50
2018-10-15T12:32:58.824Z,4.50
2018-10-15T12:33:58.869Z,4.40
2018-10-15T12:34:58.920Z,5.10
2018-10-15T12:35:59.174Z,4.80
2018-10-15T12:36:59.230Z,4.50
2018-10-15T12:38:59.124Z,4.50
2018-10-15T12:39:59.176Z,4.50
2018-10-15T12:40:59.223Z,4.60
2018-10-15T12:42:59.733Z,4.40
2018-10-15T12:43:59.348Z,4.40
2018-10-15T12:44:59.422Z,5.00
2018-10-15T12:45:59.472Z,4.80
2018-10-15T12:47:59.751Z,4.90
2018-10-15T12:48:59.622Z,4.20
2018-10-15T12:49:59.675Z,4.30
2018-10-15T12:50:59.723Z,4.60
2018-10-15T12:51:59.769Z,4.40
2018-10-15T12:52:59.821Z,4.40
2018-10-15T12:53:59.874Z,5.20
2018-10-15T12:55:59.973Z,4.80
2018-10-15T12:57:00.266Z,4.00
2018-10-15T12:58:00.273Z,5.50
2018-10-15T12:59:00.119Z,5.10
2018-10-15T13:00:00.147Z,4.30
2018-10-15T13:01:00.828Z,4.20
2018-10-15T13:02:00.267Z,4.50
2018-10-15T13:03:00.323Z,4.30
2018-10-15T13:04:00.357Z,4.30
2018-10-15T13:05:00.396Z,4.00
2018-10-15T13:06:00.468Z,4.60
2018-10-15T13:07:00.497Z,4.20
2018-10-15T13:08:00.566Z,4.80
2018-10-15T13:09:01.533Z,4.30
2018-10-15T13:11:00.719Z,4.30
2018-10-15T13:12:00.972Z,5.00
2018-10-15T13:13:00.822Z,4.50
2018-10-15T13:14:01.070Z,4.10
2018-10-15T13:15:00.917Z,4.60
2018-10-15T13:16:01.476Z,4.60
2018-10-15T13:17:01.016Z,4.50
2018-10-15T13:18:01.067Z,4.40
2018-10-15T13:19:01.139Z,4.30
2018-10-15T13:20:01.472Z,3.70
2018-10-15T13:21:01.193Z,4.30
2018-10-15T13:22:01.244Z,3.90
2018-10-15T13:23:01.517Z,4.50
2018-10-15T13:25:01.416Z,4.70
2018-10-15T13:26:01.465Z,4.30
2018-10-15T13:27:01.491Z,4.90
2018-10-15T13:28:01.542Z,4.30
2018-10-15T13:29:01.588Z,4.60
2018-10-15T13:30:01.969Z,4.70
2018-10-15T13:33:01.839Z,4.80
2018-10-15T13:34:01.835Z,4.70
2018-10-15T13:35:01.882Z,4.30
2018-10-15T13:36:02.133Z,4.80
2018-10-15T13:37:01.984Z,4.70
2018-10-15T13:38:02.029Z,5.40
2018-10-15T13:39:02.078Z,5.10
2018-10-15T13:40:02.128Z,5.00
2018-10-15T13:41:02.178Z,5.10
2018-10-15T13:42:02.224Z,4.60
2018-10-15T13:43:02.274Z,4.90
2018-10-15T13:44:02.323Z,4.50
2018-10-15T13:45:02.421Z,5.00
2018-10-15T13:46:02.420Z,5.30
2018-10-15T13:47:02.471Z,5.80
2018-10-15T13:48:02.518Z,5.10
2018-10-15T13:49:02.568Z,4.30
2018-10-15T13:50:02.616Z,5.30
2018-10-15T13:51:02.995Z,5.00
2018-10-15T13:53:02.761Z,5.30
2018-10-15T13:54:05.836Z,4.70
2018-10-15T13:55:02.860Z,5.10
2018-10-15T13:56:02.906Z,5.30
2018-10-15T13:57:02.958Z,4.80
2018-10-15T13:58:03.006Z,4.90
2018-10-15T13:59:03.054Z,5.00
2018-10-15T14:00:03.103Z,4.50
2018-10-15T14:02:03.200Z,5.10
2018-10-15T14:03:03.247Z,4.80
2018-10-15T14:05:07.205Z,4.60
2018-10-15T14:06:03.393Z,4.80
2018-10-15T14:07:03.442Z,5.00
2018-10-15T14:08:03.489Z,4.90
2018-10-15T14:09:03.538Z,5.00
2018-10-15T14:10:03.587Z,5.10
2018-10-15T14:11:03.635Z,4.20
2018-10-15T14:12:03.682Z,5.10
2018-10-15T14:13:03.731Z,4.70